createdAt,value
2022-08-25T00:02:00.116Z,52.45
2022-08-25T00:04:31.168Z,52.94
2022-08-25T00:07:03.099Z,53.32
2022-08-25T00:09:31.567Z,53.44
2022-08-25T00:11:58.832Z,53.95
2022-08-25T00:14:35.775Z,53.39
2022-08-25T00:17:04.410Z,53.12
2022-08-25T00:19:34.079Z,54.82
2022-08-25T00:22:00.952Z,54.08
2022-08-25T00:24:27.992Z,53.35
2022-08-25T00:26:57.110Z,53.35
2022-08-25T00:29:27.131Z,54.32
2022-08-25T00:32:01.919Z,53.65
2022-08-25T00:34:34.257Z,53.14
2022-08-25T00:37:01.951Z,52.98
2022-08-25T00:39:30.962Z,53.22
2022-08-25T00:42:00.025Z,52.73
2022-08-25T00:44:35.901Z,52.99
2022-08-25T00:47:03.973Z,53.01
2022-08-25T00:49:38.536Z,52.90
2022-08-25T00:52:13.110Z,52.91
2022-08-25T00:54:49.714Z,52.72
2022-08-25T00:57:22.093Z,52.41
2022-08-25T01:00:01.357Z,52.64
2022-08-25T01:02:27.836Z,53.00
2022-08-25T01:04:54.255Z,53.01
2022-08-25T01:07:29.923Z,52.95
2022-08-25T01:09:56.527Z,53.26
2022-08-25T01:12:29.932Z,53.39
2022-08-25T01:14:56.775Z,53.40
2022-08-25T01:17:23.252Z,53.05
2022-08-25T01:19:49.718Z,53.35
2022-08-25T01:22:32.224Z,53.34
2022-08-25T01:25:05.248Z,53.19
2022-08-25T01:27:36.349Z,53.85
2022-08-25T01:30:03.068Z,54.27
2022-08-25T01:33:32.939Z,54.29
2022-08-25T01:35:59.806Z,54.32
2022-08-25T01:42:28.764Z,55.50
2022-08-25T01:48:45.681Z,55.55
2022-08-25T01:51:25.967Z,57.31
2022-08-25T01:53:52.357Z,57.33
2022-08-25T01:56:21.409Z,57.63
2022-08-25T01:58:50.289Z,58.44
2022-08-25T02:01:20.406Z,58.15
2022-08-25T02:03:52.331Z,58.86
2022-08-25T02:06:34.891Z,57.92
2022-08-25T02:09:10.363Z,58.73
2022-08-25T02:11:38.765Z,59.49
2022-08-25T02:14:05.716Z,59.60
2022-08-25T02:16:42.036Z,59.51
2022-08-25T02:19:11.801Z,60.13
2022-08-25T02:21:50.980Z,60.74
2022-08-25T02:24:18.734Z,60.81
2022-08-25T02:26:53.983Z,61.21
2022-08-25T02:29:20.396Z,62.12
2022-08-25T02:31:47.020Z,62.39
2022-08-25T02:34:16.184Z,61.84
2022-08-25T02:36:43.739Z,62.12
2022-08-25T02:39:11.360Z,62.61
2022-08-25T02:41:44.995Z,62.81
2022-08-25T02:44:13.686Z,63.50
2022-08-25T02:46:46.994Z,63.72
2022-08-25T02:49:13.384Z,64.95
2022-08-25T02:51:39.853Z,65.10
2022-08-25T02:54:07.056Z,64.84
2022-08-25T02:56:36.152Z,64.83
2022-08-25T02:59:05.583Z,66.06
2022-08-25T03:01:39.077Z,66.00
2022-08-25T03:04:07.144Z,66.07
2022-08-25T03:06:40.027Z,66.01
2022-08-25T03:09:09.287Z,66.42
2022-08-25T03:11:47.029Z,66.45
2022-08-25T03:14:13.491Z,64.23
2022-08-25T03:16:49.138Z,64.02
2022-08-25T03:19:16.703Z,64.27
2022-08-25T03:22:04.039Z,63.87
2022-08-25T03:24:30.489Z,63.67
2022-08-25T03:26:59.334Z,63.21
2022-08-25T03:29:29.368Z,62.63
2022-08-25T03:31:58.154Z,63.41
2022-08-25T03:34:29.628Z,63.81
2022-08-25T03:36:57.075Z,63.82
2022-08-25T03:39:25.583Z,63.88
2022-08-25T03:41:53.320Z,64.38
2022-08-25T03:44:21.410Z,65.92
2022-08-25T03:46:51.199Z,66.35
2022-08-25T03:49:22.706Z,66.88
2022-08-25T03:51:52.661Z,67.24
2022-08-25T03:54:24.693Z,66.77
2022-08-25T03:56:51.564Z,66.94
2022-08-25T03:59:18.161Z,67.32
2022-08-25T04:01:55.678Z,67.27
2022-08-25T04:04:22.783Z,67.47
2022-08-25T04:06:49.290Z,68.39
2022-08-25T04:09:15.654Z,68.88
2022-08-25T04:11:42.736Z,68.78
2022-08-25T04:14:09.387Z,69.06
2022-08-25T04:16:42.622Z,69.73
2022-08-25T04:19:15.561Z,69.70
2022-08-25T04:22:02.098Z,69.69
2022-08-25T04:24:29.967Z,69.84
2022-08-25T04:26:56.908Z,71.66
2022-08-25T04:29:27.609Z,71.00
2022-08-25T04:32:02.189Z,70.94
2022-08-25T04:34:30.176Z,71.23
2022-08-25T04:37:09.070Z,71.08
2022-08-25T04:39:35.893Z,71.32
2022-08-25T04:42:02.786Z,71.65
2022-08-25T04:44:32.859Z,72.40
2022-08-25T04:47:02.271Z,72.69
2022-08-25T04:49:28.852Z,71.87
2022-08-25T04:52:03.112Z,73.19
2022-08-25T04:54:36.027Z,72.78
2022-08-25T04:57:10.099Z,73.18
2022-08-25T04:59:38.703Z,73.14
2022-08-25T05:02:08.472Z,75.54
2022-08-25T05:04:36.295Z,75.39
2022-08-25T05:07:06.079Z,75.14
2022-08-25T05:09:33.199Z,76.18
2022-08-25T05:12:07.518Z,75.42
2022-08-25T05:14:34.024Z,75.84
2022-08-25T05:17:04.579Z,76.36
2022-08-25T05:19:31.074Z,74.94
2022-08-25T05:21:58.100Z,76.93
2022-08-25T05:24:32.110Z,76.39
2022-08-25T05:27:03.920Z,75.96
2022-08-25T05:29:30.251Z,76.30
2022-08-25T05:31:58.983Z,75.77
2022-08-25T05:34:25.666Z,76.07
2022-08-25T05:36:54.678Z,75.00
2022-08-25T05:39:21.280Z,74.27
2022-08-25T05:41:47.752Z,74.55
2022-08-25T05:44:24.157Z,74.01
2022-08-25T05:46:51.268Z,72.76
2022-08-25T05:49:17.901Z,74.21
2022-08-25T05:51:54.170Z,71.27
2022-08-25T05:54:22.995Z,72.18
2022-08-25T05:56:49.590Z,70.90
2022-08-25T05:59:15.960Z,72.29
2022-08-25T06:02:01.352Z,69.67
2022-08-25T06:04:30.311Z,69.84
2022-08-25T06:07:02.105Z,70.76
2022-08-25T06:09:28.523Z,67.78
2022-08-25T06:11:58.381Z,69.52
2022-08-25T06:14:25.056Z,69.09
2022-08-25T06:16:52.233Z,67.50
2022-08-25T06:19:18.935Z,68.88
2022-08-25T06:21:47.816Z,67.14
2022-08-25T06:24:20.191Z,66.98
2022-08-25T06:26:46.730Z,66.70
2022-08-25T06:29:14.083Z,67.50
2022-08-25T06:31:43.529Z,64.64
2022-08-25T06:34:13.744Z,64.52
2022-08-25T06:36:40.688Z,65.80
2022-08-25T06:39:14.204Z,64.80
2022-08-25T06:41:40.719Z,65.09
2022-08-25T06:44:11.072Z,63.92
2022-08-25T06:46:37.546Z,63.62
2022-08-25T06:49:06.804Z,62.39
2022-08-25T06:51:36.057Z,59.70
2022-08-25T06:54:03.553Z,59.27
2022-08-25T06:56:30.043Z,59.50
2022-08-25T06:58:56.471Z,59.74
2022-08-25T07:01:26.963Z,59.56
2022-08-25T07:03:59.813Z,57.98
2022-08-25T07:06:28.403Z,59.68
2022-08-25T07:08:55.878Z,57.35
2022-08-25T07:11:22.461Z,56.25
2022-08-25T07:13:50.375Z,57.66
2022-08-25T07:16:19.178Z,56.58
2022-08-25T07:18:47.138Z,56.09
2022-08-25T07:21:35.617Z,55.93
2022-08-25T07:24:06.941Z,55.57
2022-08-25T07:26:37.906Z,56.46
2022-08-25T07:29:09.952Z,55.50
2022-08-25T07:31:39.562Z,54.10
2022-08-25T07:34:34.565Z,54.31
2022-08-25T07:37:04.359Z,53.76
2022-08-25T07:39:35.853Z,54.59
2022-08-25T07:42:02.268Z,54.65
2022-08-25T07:44:28.688Z,54.48
2022-08-25T07:46:55.681Z,53.13
2022-08-25T07:49:24.297Z,53.24
2022-08-25T07:52:05.515Z,54.11
2022-08-25T07:54:35.547Z,53.22
2022-08-25T07:57:07.348Z,53.27
2022-08-25T07:59:39.741Z,52.01
2022-08-25T08:02:19.403Z,52.30
2022-08-25T08:04:52.931Z,51.36
2022-08-25T08:07:23.892Z,52.81
2022-08-25T08:12:56.764Z,51.08
2022-08-25T08:15:23.386Z,50.92
2022-08-25T08:17:50.146Z,51.84
2022-08-25T08:20:17.396Z,50.02
2022-08-25T08:23:03.395Z,50.13
2022-08-25T08:25:30.780Z,50.41
2022-08-25T08:27:57.274Z,50.48
2022-08-25T08:30:27.353Z,49.54
2022-08-25T08:33:16.501Z,50.27
2022-08-25T08:35:43.260Z,50.48
2022-08-25T08:38:14.847Z,49.53
2022-08-25T08:41:11.522Z,49.39
2022-08-25T08:43:41.717Z,49.11
2022-08-25T08:46:08.286Z,49.40
2022-08-25T08:48:37.089Z,48.52
2022-08-25T08:51:15.033Z,49.31
2022-08-25T08:53:52.747Z,49.17
2022-08-25T08:56:31.833Z,48.52
2022-08-25T08:59:06.386Z,47.67
2022-08-25T09:01:45.517Z,48.40
2022-08-25T09:04:20.882Z,47.69
2022-08-25T09:06:51.210Z,47.82
2022-08-25T09:09:28.711Z,47.85
2022-08-25T09:12:09.550Z,46.92
2022-08-25T09:14:54.003Z,47.40
2022-08-25T09:18:00.289Z,47.78
2022-08-25T09:20:36.717Z,48.13
2022-08-25T09:23:10.815Z,46.98
2022-08-25T09:26:02.591Z,46.64
2022-08-25T09:28:29.075Z,46.62
2022-08-25T09:31:17.647Z,45.54
2022-08-25T09:34:04.290Z,44.94
2022-08-25T09:36:37.553Z,45.72
2022-08-25T09:39:10.086Z,46.52
2022-08-25T09:41:47.057Z,45.68
2022-08-25T09:44:42.693Z,45.38
2022-08-25T09:47:18.136Z,45.26
2022-08-25T09:50:08.366Z,43.72
2022-08-25T09:52:45.813Z,44.82
2022-08-25T09:55:20.343Z,44.02
2022-08-25T09:57:56.732Z,44.25
2022-08-25T10:00:24.375Z,44.61
2022-08-25T10:03:14.411Z,44.07
2022-08-25T10:06:03.395Z,44.57
2022-08-25T10:08:44.732Z,44.23
2022-08-25T10:11:42.207Z,44.47
2022-08-25T10:14:33.886Z,43.00
2022-08-25T10:17:31.392Z,44.35
2022-08-25T10:20:11.910Z,42.89
2022-08-25T10:22:53.372Z,43.04
2022-08-25T10:25:29.808Z,42.66
2022-08-25T10:28:37.398Z,41.07
2022-08-25T10:31:19.443Z,42.27
2022-08-25T10:34:12.408Z,41.78
2022-08-25T10:36:58.983Z,44.00
2022-08-25T10:39:54.912Z,42.04
2022-08-25T10:42:42.745Z,43.19
2022-08-25T10:45:39.856Z,42.93
2022-08-25T10:48:40.082Z,42.48
2022-08-25T10:51:07.878Z,43.11
2022-08-25T10:53:53.028Z,43.02
2022-08-25T10:56:41.626Z,41.96
2022-08-25T10:59:46.861Z,43.24
2022-08-25T11:02:41.593Z,43.18
2022-08-25T11:05:30.476Z,43.49
2022-08-25T11:08:32.094Z,42.40
2022-08-25T11:11:03.659Z,42.88
2022-08-25T11:13:47.659Z,41.89
2022-08-25T11:16:21.799Z,43.28
2022-08-25T11:18:58.094Z,43.05
2022-08-25T11:21:49.242Z,42.11
2022-08-25T11:24:39.895Z,40.38
2022-08-25T11:27:15.752Z,40.69
2022-08-25T11:29:53.363Z,41.77
2022-08-25T11:32:20.995Z,40.01
2022-08-25T11:34:50.551Z,39.58
2022-08-25T11:37:25.954Z,40.03
2022-08-25T11:39:58.599Z,40.95
2022-08-25T11:42:25.761Z,40.46
2022-08-25T11:45:19.453Z,40.67
2022-08-25T11:47:46.001Z,40.58
2022-08-25T11:51:00.509Z,40.22
2022-08-25T11:53:35.846Z,39.99
2022-08-25T11:56:13.034Z,41.56
2022-08-25T11:58:53.764Z,40.59
2022-08-25T12:01:36.074Z,42.52
2022-08-25T12:04:13.338Z,40.09
2022-08-25T12:07:00.371Z,40.91
2022-08-25T12:09:26.789Z,40.44
2022-08-25T12:11:55.554Z,40.92
2022-08-25T12:14:22.042Z,41.17
2022-08-25T12:16:53.780Z,39.77
2022-08-25T12:19:41.505Z,41.58
2022-08-25T12:22:29.479Z,40.14
2022-08-25T12:25:06.869Z,39.38
2022-08-25T12:27:50.625Z,39.03
2022-08-25T12:30:23.314Z,39.04
2022-08-25T12:33:10.864Z,38.12
2022-08-25T12:35:52.739Z,38.13
2022-08-25T12:38:42.541Z,37.24
2022-08-25T12:41:13.428Z,36.78
2022-08-25T12:43:45.143Z,38.96
2022-08-25T12:46:27.466Z,38.16
2022-08-25T12:49:36.119Z,37.77
2022-08-25T12:52:30.840Z,37.11
2022-08-25T12:55:05.331Z,36.66
2022-08-25T12:57:40.513Z,38.42
2022-08-25T13:06:36.287Z,36.31
2022-08-25T13:09:31.874Z,36.60
2022-08-25T13:12:07.876Z,37.85
2022-08-25T13:14:39.186Z,36.40
2022-08-25T13:17:07.478Z,37.60
2022-08-25T13:19:39.005Z,36.11
2022-08-25T13:22:40.548Z,36.00
2022-08-25T13:25:07.160Z,36.94
2022-08-25T13:27:42.535Z,37.64
2022-08-25T13:30:23.343Z,37.64
2022-08-25T13:32:56.571Z,37.47
2022-08-25T13:35:33.133Z,36.60
2022-08-25T13:38:23.531Z,36.18
2022-08-25T13:40:50.425Z,36.00
2022-08-25T13:43:16.870Z,35.23
2022-08-25T13:45:46.741Z,35.53
2022-08-25T13:48:30.790Z,35.04
2022-08-25T13:51:09.059Z,34.52
2022-08-25T13:53:37.567Z,34.12
2022-08-25T13:56:04.278Z,37.33
2022-08-25T13:58:45.663Z,35.62
2022-08-25T14:01:25.700Z,35.88
2022-08-25T14:04:57.573Z,35.43
2022-08-25T14:07:25.404Z,33.83
2022-08-25T14:10:06.578Z,33.28
2022-08-25T14:12:40.559Z,34.47
2022-08-25T14:15:08.562Z,34.81
2022-08-25T14:17:39.534Z,34.23
2022-08-25T14:20:29.105Z,35.35
2022-08-25T14:23:05.582Z,34.89
2022-08-25T14:25:37.301Z,34.59
2022-08-25T14:28:14.377Z,34.28
2022-08-25T14:30:46.612Z,34.88
2022-08-25T14:33:14.525Z,34.07
2022-08-25T14:35:44.564Z,33.83
2022-08-25T14:38:12.277Z,34.00
2022-08-25T14:40:39.732Z,34.53
2022-08-25T14:43:09.818Z,34.29
2022-08-25T14:45:46.678Z,34.85
2022-08-25T14:48:24.987Z,33.38
2022-08-25T14:50:59.623Z,34.12
2022-08-25T14:53:27.103Z,33.49
2022-08-25T14:56:10.201Z,33.10
2022-08-25T14:58:50.984Z,33.54
2022-08-25T15:01:30.128Z,33.95
2022-08-25T15:04:17.595Z,33.66
2022-08-25T15:06:51.639Z,33.37
2022-08-25T15:09:18.893Z,33.54
2022-08-25T15:12:00.680Z,33.42
2022-08-25T15:14:33.238Z,34.17
2022-08-25T15:17:07.654Z,33.22
2022-08-25T15:19:35.338Z,33.09
2022-08-25T15:22:01.795Z,33.90
2022-08-25T15:24:28.472Z,33.69
2022-08-25T15:26:58.632Z,33.80
2022-08-25T15:29:30.427Z,33.95
2022-08-25T15:32:01.602Z,33.30
2022-08-25T15:34:29.699Z,33.46
2022-08-25T15:37:07.260Z,33.95
2022-08-25T15:39:36.205Z,34.50
2022-08-25T15:42:03.915Z,33.79
2022-08-25T15:44:31.334Z,32.99
2022-08-25T15:46:58.920Z,33.00
2022-08-25T15:49:29.521Z,33.14
2022-08-25T15:51:56.851Z,32.59
2022-08-25T15:54:26.678Z,32.79
2022-08-25T15:56:57.512Z,32.90
2022-08-25T15:59:27.815Z,33.87
2022-08-25T16:01:54.549Z,32.95
2022-08-25T16:04:23.492Z,33.36
2022-08-25T16:06:50.370Z,33.66
2022-08-25T16:09:17.074Z,33.99
2022-08-25T16:11:56.852Z,34.30
2022-08-25T16:14:24.827Z,34.70
2022-08-25T16:16:54.077Z,34.45
2022-08-25T16:19:31.793Z,34.48
2022-08-25T16:22:18.725Z,34.37
2022-08-25T16:24:45.443Z,34.17
2022-08-25T16:27:13.336Z,34.43
2022-08-25T16:29:43.908Z,33.60
2022-08-25T16:32:16.122Z,34.59
2022-08-25T16:34:45.364Z,35.77
2022-08-25T16:37:14.148Z,34.89
2022-08-25T16:39:45.387Z,34.09
2022-08-25T16:42:12.273Z,33.78
2022-08-25T16:44:39.872Z,34.16
2022-08-25T16:47:08.765Z,34.86
2022-08-25T16:49:35.599Z,35.93
2022-08-25T16:52:24.571Z,34.19
2022-08-25T16:55:14.345Z,35.89
2022-08-25T16:57:47.817Z,37.32
2022-08-25T17:00:18.111Z,37.45
2022-08-25T17:02:45.558Z,37.69
2022-08-25T17:05:18.734Z,36.91
2022-08-25T17:08:08.824Z,37.50
2022-08-25T17:10:41.347Z,36.45
2022-08-25T17:13:08.975Z,37.74
2022-08-25T17:15:43.349Z,37.24
2022-08-25T17:18:13.643Z,35.69
2022-08-25T17:20:43.285Z,36.57
2022-08-25T17:23:14.202Z,35.85
2022-08-25T17:25:43.480Z,37.41
2022-08-25T17:28:12.235Z,36.96
2022-08-25T17:30:46.751Z,37.78
2022-08-25T17:33:14.200Z,35.97
2022-08-25T17:35:50.758Z,35.35
2022-08-25T17:38:25.908Z,35.34
2022-08-25T17:40:55.313Z,35.10
2022-08-25T17:43:22.322Z,35.06
2022-08-25T17:45:49.259Z,35.33
2022-08-25T17:48:16.699Z,35.50
2022-08-25T17:50:43.087Z,36.84
2022-08-25T17:53:12.877Z,36.24
2022-08-25T17:55:47.791Z,36.56
2022-08-25T17:58:16.791Z,37.15
2022-08-25T18:00:51.759Z,35.58
2022-08-25T18:03:19.297Z,35.32
2022-08-25T18:05:52.770Z,37.42
2022-08-25T18:08:19.438Z,37.87
2022-08-25T18:10:48.019Z,38.71
2022-08-25T18:13:17.045Z,38.84
2022-08-25T18:15:44.446Z,38.54
2022-08-25T18:18:14.276Z,38.15
2022-08-25T18:20:44.047Z,39.05
2022-08-25T18:23:10.447Z,38.82
2022-08-25T18:25:50.833Z,38.62
2022-08-25T18:28:17.751Z,39.80
2022-08-25T18:30:50.861Z,40.66
2022-08-25T18:33:18.935Z,40.21
2022-08-25T18:35:46.168Z,39.04
2022-08-25T18:38:33.257Z,39.25
2022-08-25T18:41:05.060Z,40.41
2022-08-25T18:43:33.980Z,40.69
2022-08-25T18:46:03.349Z,41.82
2022-08-25T18:48:34.466Z,41.94
2022-08-25T18:51:00.983Z,42.84
2022-08-25T18:53:30.713Z,42.85
2022-08-25T18:56:22.831Z,43.61
2022-08-25T18:58:49.769Z,44.47
2022-08-25T19:01:19.005Z,43.72
2022-08-25T19:03:45.849Z,45.08
2022-08-25T19:06:12.513Z,44.21
2022-08-25T19:08:41.630Z,44.40
2022-08-25T19:11:22.283Z,44.70
2022-08-25T19:13:49.269Z,45.25
2022-08-25T19:16:30.600Z,45.35
2022-08-25T19:21:38.472Z,45.90
2022-08-25T19:24:06.922Z,46.28
2022-08-25T19:26:42.485Z,46.66
2022-08-25T19:29:12.498Z,47.85
2022-08-25T19:31:48.500Z,47.50
2022-08-25T19:34:21.623Z,47.21
2022-08-25T19:36:55.469Z,46.92
2022-08-25T19:39:23.100Z,46.67
2022-08-25T19:41:57.488Z,47.83
2022-08-25T19:44:25.265Z,47.32
2022-08-25T19:46:57.526Z,47.90
2022-08-25T19:49:31.759Z,47.47
2022-08-25T19:52:06.492Z,48.68
2022-08-25T19:54:44.408Z,49.38
2022-08-25T19:57:13.580Z,50.05
2022-08-25T19:59:54.751Z,49.86
2022-08-25T20:02:25.382Z,50.34
2022-08-25T20:04:59.438Z,50.49
2022-08-25T20:07:30.561Z,50.79
2022-08-25T20:09:58.089Z,51.07
2022-08-25T20:12:25.965Z,51.63
2022-08-25T20:14:54.407Z,50.72
2022-08-25T20:17:23.586Z,52.33
2022-08-25T20:19:52.408Z,51.68
2022-08-25T20:22:26.678Z,51.09
2022-08-25T20:24:57.869Z,51.98
2022-08-25T20:27:35.498Z,52.56
2022-08-25T20:30:04.866Z,52.95
2022-08-25T20:32:39.513Z,53.42
2022-08-25T20:35:09.307Z,52.98
2022-08-25T20:37:48.510Z,53.57
2022-08-25T20:40:30.888Z,54.27
2022-08-25T20:43:10.380Z,53.98
2022-08-25T20:45:40.891Z,53.96
2022-08-25T20:48:13.531Z,54.32
2022-08-25T20:50:39.983Z,54.81
2022-08-25T20:53:10.136Z,54.43
2022-08-25T20:55:52.533Z,54.31
2022-08-25T20:58:20.159Z,54.53
2022-08-25T21:00:55.514Z,55.06
2022-08-25T21:03:22.153Z,55.40
2022-08-25T21:05:48.983Z,55.23
2022-08-25T21:08:20.607Z,55.50
2022-08-25T21:10:52.597Z,55.80
2022-08-25T21:13:19.049Z,56.25
2022-08-25T21:15:54.558Z,56.61
2022-08-25T21:18:20.915Z,55.99
2022-08-25T21:21:07.558Z,56.80
2022-08-25T21:23:35.400Z,57.00
2022-08-25T21:26:01.859Z,56.54
2022-08-25T21:28:31.083Z,57.25
2022-08-25T21:31:00.356Z,57.48
2022-08-25T21:33:28.310Z,56.86
2022-08-25T21:35:54.870Z,57.36
2022-08-25T21:38:21.479Z,58.17
2022-08-25T21:40:48.053Z,57.62
2022-08-25T21:43:15.005Z,58.02
2022-08-25T21:45:46.772Z,58.35
2022-08-25T21:48:13.876Z,57.99
2022-08-25T21:50:49.577Z,58.39
2022-08-25T21:53:15.959Z,58.29
2022-08-25T21:55:50.593Z,58.91
2022-08-25T21:58:17.057Z,58.82
2022-08-25T22:00:44.609Z,59.13
2022-08-25T22:03:13.354Z,59.30
2022-08-25T22:05:45.615Z,59.35
2022-08-25T22:08:12.258Z,59.62
2022-08-25T22:10:54.621Z,59.87
2022-08-25T22:13:21.863Z,60.18
2022-08-25T22:15:51.886Z,60.10
2022-08-25T22:18:19.678Z,60.26
2022-08-25T22:21:08.705Z,60.31
2022-08-25T22:23:44.191Z,60.37
2022-08-25T22:26:12.395Z,61.02
2022-08-25T22:28:39.402Z,61.00
2022-08-25T22:31:12.192Z,60.80
2022-08-25T22:33:40.499Z,61.09
2022-08-25T22:36:29.276Z,61.03
2022-08-25T22:38:56.666Z,60.58
2022-08-25T22:41:31.463Z,61.09
2022-08-25T22:44:04.921Z,61.31
2022-08-25T22:46:34.698Z,62.07
2022-08-25T22:49:02.074Z,62.29
2022-08-25T22:51:39.628Z,61.91
2022-08-25T22:54:06.067Z,62.06
2022-08-25T22:56:43.649Z,62.82
2022-08-25T22:59:11.895Z,61.98
2022-08-25T23:01:44.638Z,62.52
2022-08-25T23:04:11.098Z,62.54
2022-08-25T23:06:37.948Z,62.71
2022-08-25T23:09:07.701Z,63.28
2022-08-25T23:11:35.598Z,63.17
2022-08-25T23:14:11.050Z,62.82
2022-08-25T23:16:41.868Z,62.69
2022-08-25T23:19:10.774Z,62.79
2022-08-25T23:22:02.676Z,63.27
2022-08-25T23:24:30.831Z,63.26
2022-08-25T23:26:59.356Z,63.66
2022-08-25T23:29:27.637Z,63.75
2022-08-25T23:31:54.170Z,63.92
2022-08-25T23:34:21.627Z,64.08
2022-08-25T23:36:56.641Z,64.27
2022-08-25T23:39:25.638Z,64.71
2022-08-25T23:41:52.390Z,64.56
2022-08-25T23:44:20.842Z,65.56
2022-08-25T23:46:59.682Z,65.39
2022-08-25T23:49:26.198Z,65.82
2022-08-25T23:51:56.521Z,65.79
2022-08-25T23:54:31.100Z,65.99
2022-08-25T23:56:58.271Z,66.20
2022-08-25T23:59:25.567Z,67.03
